Norman Y. Mineta San Jose International Airport
KSJC : now visible

Airfield :











YOU CAN JOIN US ON...

 
LOGIN :

Register | Disclaimer

   EN    FR    IT 

 









Legend :    VFR   Marginal VFR   IFR   Intensive IFR   Very Intensive IFR
Visi :
Ceiling :
>= 8 km
>= 3000ft
5 to 8 km
1000 to 3000 ft
1500m to 5 km
500 to 1000 ft
800 to 1500m
200 to 500 ft
< 800m
< 200 ft
Symbols :   Thunderstorms  Fog  Heavy snow  Heavy precipitations  Wind > 20 kt






- Airport Elevation : 62 ft
- IATA code : SJC


KSJC - Norman Y. Mineta San Jose International

CURRENT METAR :
  • 170253Z 35009KT 10SM FEW023 SCT080 BKN140 12/09 A3017 RMK AO2 SLP217 T01220089 53003 $

EXPIRED METARs :
  • 170153Z 33010KT 10SM FEW023 BKN080 OVC250 13/08 A3016 RMK AO2 SLP212 T01330083 $
  • 170053Z 33010KT 10SM FEW080 BKN160 OVC250 14/08 A3015 RMK AO2 SLP210 T01440078 $

TAF KSJC
Valid from the 17 at 00:00 until the 18 at 00:00 UTC


162337Z 1700/1724 32013KT P6SM FEW020 BKN150
FM170300 32005KT P6SM FEW010 BKN180
FM170700 VRB04KT P6SM FEW010 BKN200
FM171400 VRB04KT P6SM FEW010 BKN200 WS020/02030KT
FM172000 31007KT P6SM FEW010 SCT200



MET'MAP, your aeronautical weather chart ! - Copyright ORBIFLY December 2007 - Disclaimer

ORBIFLY MET'MAP TEAM :

Programming & Development : Alexandra Zaïnal
Concept & original design : Baudouin d'Aumeries
Assistance for programming : Marc-Olivier Méhu
Technical & hardware support : Manuel Goepfert

Contact : metmap@orbifly.com




SOURCES & CREDITS :

   NOAA       Earth
Advisory